createdAt,value
2022-12-23T00:01:15.346Z,8.97
2022-12-23T00:03:42.880Z,8.97
2022-12-23T00:06:15.218Z,8.98
2022-12-23T00:08:42.791Z,8.99
2022-12-23T00:11:16.326Z,8.99
2022-12-23T00:14:01.493Z,8.98
2022-12-23T00:16:28.134Z,8.98
2022-12-23T00:18:55.419Z,8.98
2022-12-23T00:21:23.018Z,8.98
2022-12-23T00:23:50.954Z,8.99
2022-12-23T00:26:20.823Z,8.96
2022-12-23T00:28:47.413Z,8.95
2022-12-23T00:31:14.869Z,8.97
2022-12-23T00:33:44.089Z,8.96
2022-12-23T00:36:19.300Z,8.95
2022-12-23T00:39:04.969Z,8.95
2022-12-23T00:41:50.337Z,8.95
2022-12-23T00:44:16.853Z,8.94
2022-12-23T00:46:43.406Z,8.93
2022-12-23T00:49:34.972Z,8.92
2022-12-23T00:52:03.369Z,8.90
2022-12-23T00:54:31.824Z,8.89
2022-12-23T00:56:59.269Z,8.88
2022-12-23T00:59:25.845Z,8.88
2022-12-23T01:02:11.147Z,8.86
2022-12-23T01:04:56.243Z,8.84
2022-12-23T01:07:24.876Z,8.85
2022-12-23T01:09:51.474Z,8.86
2022-12-23T01:12:18.328Z,8.85
2022-12-23T01:14:44.762Z,8.85
2022-12-23T01:17:11.663Z,8.84
2022-12-23T01:19:38.421Z,8.84
2022-12-23T01:22:05.037Z,8.83
2022-12-23T01:24:32.440Z,8.82
2022-12-23T01:26:59.511Z,8.81
2022-12-23T01:29:26.299Z,8.81
2022-12-23T01:31:52.952Z,8.81
2022-12-23T01:34:19.537Z,8.80
2022-12-23T01:36:46.023Z,8.80
2022-12-23T01:39:12.488Z,8.82
2022-12-23T01:41:57.280Z,8.81
2022-12-23T01:44:45.552Z,8.81
2022-12-23T01:47:19.414Z,8.81
2022-12-23T01:49:47.285Z,8.82
2022-12-23T01:52:14.766Z,8.80
2022-12-23T01:54:43.905Z,8.81
2022-12-23T01:57:11.095Z,8.82
2022-12-23T01:59:56.150Z,8.82
2022-12-23T02:02:41.709Z,8.81
2022-12-23T02:05:08.453Z,8.81
2022-12-23T02:07:54.093Z,8.81
2022-12-23T02:10:22.819Z,8.80
2022-12-23T02:13:06.710Z,8.80
2022-12-23T02:16:09.305Z,8.78
2022-12-23T02:19:00.137Z,8.80
2022-12-23T02:21:51.431Z,8.80
2022-12-23T02:24:32.846Z,8.78
2022-12-23T02:27:18.001Z,8.79
2022-12-23T02:30:06.333Z,8.77
2022-12-23T02:33:00.344Z,8.77
2022-12-23T02:36:03.256Z,8.74
2022-12-23T02:38:41.621Z,8.71
2022-12-23T02:41:38.293Z,8.72
2022-12-23T02:44:36.412Z,8.71
2022-12-23T02:47:11.255Z,8.69
2022-12-23T02:49:43.366Z,8.68
2022-12-23T02:52:15.819Z,8.66
2022-12-23T02:54:47.137Z,8.62
2022-12-23T02:57:17.635Z,8.60
2022-12-23T02:59:50.978Z,8.54
2022-12-23T03:02:18.374Z,8.52
2022-12-23T03:04:44.991Z,8.50
2022-12-23T03:07:20.885Z,8.50
2022-12-23T03:10:08.477Z,8.49
2022-12-23T03:13:00.206Z,8.48
2022-12-23T03:15:38.901Z,8.44
2022-12-23T03:18:31.417Z,8.41
2022-12-23T03:21:22.385Z,8.39
2022-12-23T03:23:56.152Z,8.34
2022-12-23T03:26:31.135Z,8.33
2022-12-23T03:29:05.305Z,8.33
2022-12-23T03:31:34.828Z,8.34
2022-12-23T03:34:09.860Z,8.35
2022-12-23T03:36:49.088Z,8.37
2022-12-23T03:39:20.480Z,8.35
2022-12-23T03:42:00.249Z,8.34
2022-12-23T03:44:38.253Z,8.32
2022-12-23T03:47:28.413Z,8.31
2022-12-23T03:50:03.842Z,8.30
2022-12-23T03:52:41.930Z,8.26
2022-12-23T03:55:16.419Z,8.25
2022-12-23T03:58:32.464Z,8.24
2022-12-23T04:01:18.183Z,8.21
2022-12-23T04:04:11.229Z,8.19
2022-12-23T04:06:51.857Z,8.17
2022-12-23T04:09:22.394Z,8.16
2022-12-23T04:11:49.512Z,8.16
2022-12-23T04:14:20.571Z,8.16
2022-12-23T04:16:49.616Z,8.15
2022-12-23T04:19:16.322Z,8.15
2022-12-23T04:21:42.770Z,8.14
2022-12-23T04:24:09.258Z,8.13
2022-12-23T04:26:35.698Z,8.13
2022-12-23T04:29:02.256Z,8.12
2022-12-23T04:31:28.837Z,8.12
2022-12-23T04:33:55.502Z,8.12
2022-12-23T04:36:21.980Z,8.12
2022-12-23T04:38:48.705Z,8.14
2022-12-23T04:41:15.196Z,8.16
2022-12-23T04:43:41.692Z,8.15
2022-12-23T04:46:08.183Z,8.15
2022-12-23T04:48:35.955Z,8.17
2022-12-23T04:51:03.288Z,8.18
2022-12-23T04:53:29.900Z,8.18
2022-12-23T04:55:56.359Z,8.20
2022-12-23T04:58:24.926Z,8.22
2022-12-23T05:01:02.090Z,8.21
2022-12-23T05:03:28.741Z,8.21
2022-12-23T05:05:55.238Z,8.20
2022-12-23T05:08:21.786Z,8.19
2022-12-23T05:10:48.385Z,8.19
2022-12-23T05:13:15.151Z,8.19
2022-12-23T05:15:44.968Z,8.19
2022-12-23T05:18:12.090Z,8.19
2022-12-23T05:20:38.739Z,8.20
2022-12-23T05:23:05.265Z,8.22
2022-12-23T05:25:36.440Z,8.20
2022-12-23T05:28:03.838Z,8.17
2022-12-23T05:30:30.553Z,8.16
2022-12-23T05:32:57.197Z,8.17
2022-12-23T05:35:25.579Z,8.15
2022-12-23T05:37:52.956Z,8.15
2022-12-23T05:40:23.695Z,8.14
2022-12-23T05:42:54.082Z,8.13
2022-12-23T05:45:20.894Z,8.12
2022-12-23T05:47:47.497Z,8.11
2022-12-23T05:50:14.306Z,8.12
2022-12-23T05:52:41.009Z,8.12
2022-12-23T05:55:08.251Z,8.10
2022-12-23T05:57:34.699Z,8.10
2022-12-23T06:00:01.161Z,8.10
2022-12-23T06:02:27.806Z,8.11
2022-12-23T06:04:54.419Z,8.12
2022-12-23T06:07:20.870Z,8.12
2022-12-23T06:09:47.380Z,8.12
2022-12-23T06:12:13.852Z,8.11
2022-12-23T06:14:40.317Z,8.12
2022-12-23T06:17:06.871Z,8.14
2022-12-23T06:19:33.399Z,8.15
2022-12-23T06:22:01.064Z,8.14
2022-12-23T06:24:27.525Z,8.14
2022-12-23T06:26:57.278Z,8.12
2022-12-23T06:29:24.895Z,8.12
2022-12-23T06:31:51.550Z,8.11
2022-12-23T06:34:18.197Z,8.13
2022-12-23T06:36:44.685Z,8.13
2022-12-23T06:39:11.496Z,8.14
2022-12-23T06:41:37.988Z,8.14
2022-12-23T06:44:04.754Z,8.15
2022-12-23T06:46:31.506Z,8.17
2022-12-23T06:48:58.075Z,8.17
2022-12-23T06:51:24.568Z,8.19
2022-12-23T06:53:51.194Z,8.20
2022-12-23T06:56:18.488Z,8.21
2022-12-23T06:58:45.095Z,8.22
2022-12-23T07:01:11.876Z,8.23
2022-12-23T07:03:38.427Z,8.22
2022-12-23T07:06:05.239Z,8.22
2022-12-23T07:08:31.698Z,8.22
2022-12-23T07:11:03.421Z,8.24
2022-12-23T07:13:30.194Z,8.23
2022-12-23T07:15:56.670Z,8.21
2022-12-23T07:18:23.945Z,8.20
2022-12-23T07:20:51.595Z,8.20
2022-12-23T07:23:18.589Z,8.21
2022-12-23T07:25:45.066Z,8.21
2022-12-23T07:28:11.487Z,8.20
2022-12-23T07:30:37.991Z,8.20
2022-12-23T07:33:04.426Z,8.19
2022-12-23T07:35:31.039Z,8.20
2022-12-23T07:37:57.786Z,8.20
2022-12-23T07:40:25.631Z,8.20
2022-12-23T07:42:57.669Z,8.19
2022-12-23T07:45:25.448Z,8.17
2022-12-23T07:47:56.062Z,8.20
2022-12-23T07:50:23.150Z,8.22
2022-12-23T07:52:49.582Z,8.22
2022-12-23T07:55:16.279Z,8.21
2022-12-23T07:57:42.807Z,8.20
2022-12-23T08:00:13.946Z,8.19
2022-12-23T08:02:40.966Z,8.19
2022-12-23T08:05:08.747Z,8.18
2022-12-23T08:07:35.738Z,8.20
2022-12-23T08:10:02.696Z,8.21
2022-12-23T08:12:29.197Z,8.21
2022-12-23T08:14:55.762Z,8.20
2022-12-23T08:17:26.609Z,8.22
2022-12-23T08:19:53.091Z,8.24
2022-12-23T08:22:19.851Z,8.22
2022-12-23T08:24:46.421Z,8.21
2022-12-23T08:27:12.906Z,8.20
2022-12-23T08:29:40.121Z,8.21
2022-12-23T08:32:07.396Z,8.21
2022-12-23T08:34:34.403Z,8.22
2022-12-23T08:37:01.430Z,8.23
2022-12-23T08:39:28.239Z,8.24
2022-12-23T08:41:54.774Z,8.24
2022-12-23T08:44:21.871Z,8.24
2022-12-23T08:46:48.554Z,8.25
2022-12-23T08:49:15.189Z,8.25
2022-12-23T08:51:42.508Z,8.25
2022-12-23T08:54:10.130Z,8.26
2022-12-23T08:56:40.240Z,8.27
2022-12-23T08:59:07.621Z,8.26
2022-12-23T09:01:34.772Z,8.27
2022-12-23T09:04:06.213Z,8.29
2022-12-23T09:06:36.268Z,8.28
2022-12-23T09:09:03.729Z,8.29
2022-12-23T09:11:30.403Z,8.30
2022-12-23T09:13:59.711Z,8.29
2022-12-23T09:16:26.989Z,8.29
2022-12-23T09:18:53.574Z,8.30
2022-12-23T09:21:22.461Z,8.30
2022-12-23T09:23:49.203Z,8.32
2022-12-23T09:26:24.729Z,8.33
2022-12-23T09:28:51.484Z,8.33
2022-12-23T09:31:18.737Z,8.33
2022-12-23T09:33:50.525Z,8.34
2022-12-23T09:36:17.960Z,8.33
2022-12-23T09:38:45.012Z,8.37
2022-12-23T09:41:26.758Z,8.38
2022-12-23T09:43:57.706Z,8.38
2022-12-23T09:46:27.519Z,8.38
2022-12-23T09:49:03.008Z,8.41
2022-12-23T09:51:30.613Z,8.42
2022-12-23T09:54:21.079Z,8.44
2022-12-23T09:57:22.353Z,8.44
2022-12-23T10:00:11.384Z,8.44
2022-12-23T10:03:00.288Z,8.47
2022-12-23T10:05:51.855Z,8.49
2022-12-23T10:08:39.457Z,8.52
2022-12-23T10:11:14.757Z,8.53
2022-12-23T10:13:45.634Z,8.54
2022-12-23T10:16:18.882Z,8.52
2022-12-23T10:18:55.618Z,8.52
2022-12-23T10:21:35.260Z,8.54
2022-12-23T10:24:20.104Z,8.58
2022-12-23T10:26:54.300Z,8.58
2022-12-23T10:29:26.138Z,8.60
2022-12-23T10:32:07.065Z,8.60
2022-12-23T10:35:15.231Z,8.62
2022-12-23T10:37:51.609Z,8.60
2022-12-23T10:40:24.755Z,8.61
2022-12-23T10:43:39.120Z,8.62
2022-12-23T10:46:33.798Z,8.64
2022-12-23T10:49:15.655Z,8.65
2022-12-23T10:51:57.545Z,8.65
2022-12-23T10:54:26.692Z,8.67
2022-12-23T10:56:54.523Z,8.68
2022-12-23T10:59:26.456Z,8.69
2022-12-23T11:02:15.415Z,8.70
2022-12-23T11:04:47.170Z,8.71
2022-12-23T11:07:43.393Z,8.74
2022-12-23T11:10:13.105Z,8.73
2022-12-23T11:12:45.663Z,8.74
2022-12-23T11:15:32.730Z,8.77
2022-12-23T11:18:06.542Z,8.77
2022-12-23T11:20:35.278Z,8.77
2022-12-23T11:23:04.483Z,8.78
2022-12-23T11:25:38.313Z,8.78
2022-12-23T11:28:10.634Z,8.80
2022-12-23T11:30:57.651Z,8.78
2022-12-23T11:33:27.993Z,8.77
2022-12-23T11:36:08.438Z,8.79
2022-12-23T11:38:37.434Z,8.78
2022-12-23T11:41:05.047Z,8.78
2022-12-23T11:43:32.685Z,8.78
2022-12-23T11:46:15.092Z,8.81
2022-12-23T11:48:41.689Z,8.81
2022-12-23T11:51:08.468Z,8.81
2022-12-23T11:53:36.639Z,8.82
2022-12-23T11:56:08.830Z,8.82
2022-12-23T11:59:02.628Z,8.83
2022-12-23T12:01:29.249Z,8.82
2022-12-23T12:04:00.401Z,8.82
2022-12-23T12:06:28.074Z,8.81
2022-12-23T12:08:57.746Z,8.81
2022-12-23T12:11:31.819Z,8.82
2022-12-23T12:14:07.731Z,8.81
2022-12-23T12:16:40.336Z,8.82
2022-12-23T12:19:35.664Z,8.83
2022-12-23T12:22:13.578Z,8.83
2022-12-23T12:24:50.473Z,8.83
2022-12-23T12:27:20.744Z,8.81
2022-12-23T12:29:52.868Z,8.82
2022-12-23T12:32:30.220Z,8.82
2022-12-23T12:35:08.699Z,8.81
2022-12-23T12:37:45.260Z,8.81
2022-12-23T12:40:18.055Z,8.78
2022-12-23T12:42:52.269Z,8.79
2022-12-23T12:45:32.131Z,8.79
2022-12-23T12:48:33.901Z,8.79
2022-12-23T12:51:13.065Z,8.78
2022-12-23T12:54:10.441Z,8.78
2022-12-23T12:56:46.173Z,8.78
2022-12-23T12:59:25.931Z,8.78
2022-12-23T13:02:07.660Z,8.78
2022-12-23T13:05:00.901Z,8.80
2022-12-23T13:07:47.284Z,8.79
2022-12-23T13:10:32.432Z,8.80
2022-12-23T13:13:19.133Z,8.81
2022-12-23T13:15:59.447Z,8.80
2022-12-23T13:18:53.560Z,8.81
2022-12-23T13:21:45.065Z,8.82
2022-12-23T13:24:25.359Z,8.82
2022-12-23T13:27:10.860Z,8.82
2022-12-23T13:29:39.969Z,8.83
2022-12-23T13:32:28.669Z,8.83
2022-12-23T13:35:07.810Z,8.82
2022-12-23T13:37:54.157Z,8.82
2022-12-23T13:40:59.084Z,8.81
2022-12-23T13:43:35.718Z,8.82
2022-12-23T13:46:11.046Z,8.85
2022-12-23T13:48:53.511Z,8.86
2022-12-23T13:51:48.662Z,8.86
2022-12-23T13:54:27.579Z,8.85
2022-12-23T13:57:31.845Z,8.85
2022-12-23T14:00:20.406Z,8.82
2022-12-23T14:02:57.629Z,8.81
2022-12-23T14:05:41.983Z,8.81
2022-12-23T14:08:39.169Z,8.80
2022-12-23T14:11:08.665Z,8.76
2022-12-23T14:13:45.914Z,8.76
2022-12-23T14:16:21.161Z,8.79
2022-12-23T14:19:18.408Z,8.82
2022-12-23T14:22:10.233Z,8.86
2022-12-23T14:24:51.966Z,8.86
2022-12-23T14:27:33.611Z,8.86
2022-12-23T14:30:21.430Z,8.84
2022-12-23T14:32:54.981Z,8.84
2022-12-23T14:35:27.865Z,8.81
2022-12-23T14:38:08.170Z,8.80
2022-12-23T14:40:37.609Z,8.77
2022-12-23T14:43:22.427Z,8.80
2022-12-23T14:45:55.082Z,8.79
2022-12-23T14:48:33.630Z,8.80
2022-12-23T14:51:09.246Z,8.78
2022-12-23T14:53:58.099Z,8.80
2022-12-23T14:56:43.664Z,8.80
2022-12-23T14:59:34.407Z,8.81
2022-12-23T15:02:22.029Z,8.80
2022-12-23T15:04:54.676Z,8.78
2022-12-23T15:07:27.720Z,8.81
2022-12-23T15:10:01.089Z,8.78
2022-12-23T15:12:34.844Z,8.76
2022-12-23T15:15:14.762Z,8.76
2022-12-23T15:17:41.775Z,8.76
2022-12-23T15:20:11.211Z,8.75
2022-12-23T15:22:39.350Z,8.75
2022-12-23T15:25:20.292Z,8.71
2022-12-23T15:27:47.157Z,8.70
2022-12-23T15:30:15.088Z,8.71
2022-12-23T15:32:44.161Z,8.70
2022-12-23T15:35:18.948Z,8.69
2022-12-23T15:37:48.886Z,8.67
2022-12-23T15:40:36.232Z,8.66
2022-12-23T15:43:18.427Z,8.67
2022-12-23T15:45:45.166Z,8.69
2022-12-23T15:48:32.490Z,8.67
2022-12-23T15:51:05.083Z,8.66
2022-12-23T15:53:35.222Z,8.65
2022-12-23T15:56:07.175Z,8.67
2022-12-23T15:58:35.451Z,8.69
2022-12-23T16:01:02.038Z,8.69
2022-12-23T16:03:40.338Z,8.71
2022-12-23T16:06:19.349Z,8.71
2022-12-23T16:08:55.259Z,8.70
2022-12-23T16:11:22.850Z,8.68
2022-12-23T16:14:01.372Z,8.69
2022-12-23T16:16:40.771Z,8.67
2022-12-23T16:19:39.121Z,8.67
2022-12-23T16:22:27.184Z,8.71
2022-12-23T16:25:08.137Z,8.71
2022-12-23T16:27:38.597Z,8.71
2022-12-23T16:30:27.889Z,8.71
2022-12-23T16:32:56.823Z,8.69
2022-12-23T16:35:34.449Z,8.68
2022-12-23T16:38:17.968Z,8.65
2022-12-23T16:40:50.226Z,8.64
2022-12-23T16:43:17.526Z,8.63
2022-12-23T16:45:45.955Z,8.65
2022-12-23T16:48:50.020Z,8.68
2022-12-23T16:51:20.169Z,8.66
2022-12-23T16:53:51.573Z,8.69
2022-12-23T16:56:20.663Z,8.69
2022-12-23T16:58:47.844Z,8.70
2022-12-23T17:01:17.345Z,8.70
2022-12-23T17:03:43.889Z,8.71
2022-12-23T17:06:14.892Z,8.73
2022-12-23T17:08:42.121Z,8.74
2022-12-23T17:11:22.779Z,8.75
2022-12-23T17:13:49.583Z,8.75
2022-12-23T17:16:21.420Z,8.74
2022-12-23T17:18:48.803Z,8.74
2022-12-23T17:21:29.412Z,8.72
2022-12-23T17:24:03.350Z,8.71
2022-12-23T17:26:30.005Z,8.66
2022-12-23T17:28:56.574Z,8.66
2022-12-23T17:31:27.061Z,8.68
2022-12-23T17:33:54.432Z,8.69
2022-12-23T17:36:21.845Z,8.69
2022-12-23T17:38:48.466Z,8.69
2022-12-23T17:41:23.245Z,8.69
2022-12-23T17:43:49.745Z,8.72
2022-12-23T17:46:16.346Z,8.74
2022-12-23T17:48:42.879Z,8.77
2022-12-23T17:51:15.182Z,8.78
2022-12-23T17:53:42.336Z,8.80
2022-12-23T17:56:14.359Z,8.83
2022-12-23T17:58:42.388Z,8.85
2022-12-23T18:01:17.875Z,8.86
2022-12-23T18:03:44.443Z,8.88
2022-12-23T18:06:15.859Z,8.91
2022-12-23T18:08:42.709Z,8.97
2022-12-23T18:11:27.561Z,8.98
2022-12-23T18:13:54.277Z,8.98
2022-12-23T18:16:20.923Z,9.03
2022-12-23T18:18:47.541Z,9.07
2022-12-23T18:21:26.275Z,9.10
2022-12-23T18:23:54.877Z,9.14
2022-12-23T18:26:21.378Z,9.15
2022-12-23T18:28:47.988Z,9.18
2022-12-23T18:31:20.352Z,9.20
2022-12-23T18:33:47.691Z,9.22
2022-12-23T18:36:33.133Z,9.22
2022-12-23T18:38:59.934Z,9.24
2022-12-23T18:41:27.380Z,9.25
2022-12-23T18:43:54.698Z,9.26
2022-12-23T18:46:21.414Z,9.27
2022-12-23T18:48:48.399Z,9.29
2022-12-23T18:51:16.456Z,9.29
2022-12-23T18:53:43.567Z,9.30
2022-12-23T18:56:20.815Z,9.32
2022-12-23T18:58:47.296Z,9.32
2022-12-23T19:01:15.945Z,9.33
2022-12-23T19:03:43.488Z,9.32
2022-12-23T19:06:13.241Z,9.33
2022-12-23T19:08:41.318Z,9.31
2022-12-23T19:11:16.383Z,9.31
2022-12-23T19:13:43.250Z,9.31
2022-12-23T19:16:20.530Z,9.32
2022-12-23T19:18:48.235Z,9.32
2022-12-23T19:21:15.826Z,9.32
2022-12-23T19:23:43.109Z,9.33
2022-12-23T19:26:10.730Z,9.32
2022-12-23T19:28:39.033Z,9.32
2022-12-23T19:31:14.091Z,9.33
2022-12-23T19:33:42.356Z,9.33
2022-12-23T19:36:14.185Z,9.32
2022-12-23T19:38:40.629Z,9.34
2022-12-23T19:41:07.494Z,9.33
2022-12-23T19:43:34.981Z,9.33
2022-12-23T19:46:04.418Z,9.32
2022-12-23T19:48:31.120Z,9.33
2022-12-23T19:51:12.972Z,9.33
2022-12-23T19:53:40.961Z,9.33
2022-12-23T19:56:13.427Z,9.33
2022-12-23T19:58:42.005Z,9.35
2022-12-23T20:01:12.839Z,9.37
2022-12-23T20:03:40.484Z,9.37
2022-12-23T20:06:08.507Z,9.39
2022-12-23T20:08:35.077Z,9.39
2022-12-23T20:11:03.768Z,9.39
2022-12-23T20:13:30.399Z,9.38
2022-12-23T20:15:56.903Z,9.38
2022-12-23T20:18:23.341Z,9.39
2022-12-23T20:20:49.869Z,9.37
2022-12-23T20:23:16.378Z,9.38
2022-12-23T20:25:43.009Z,9.40
2022-12-23T20:28:09.497Z,9.41
2022-12-23T20:30:36.029Z,9.40
2022-12-23T20:33:02.542Z,9.40
2022-12-23T20:35:30.129Z,9.41
2022-12-23T20:37:56.642Z,9.40
2022-12-23T20:40:23.123Z,9.40
2022-12-23T20:42:49.605Z,9.42
2022-12-23T20:45:16.245Z,9.40
2022-12-23T20:47:42.760Z,9.41
2022-12-23T20:50:09.435Z,9.42
2022-12-23T20:52:35.953Z,9.42
2022-12-23T20:55:02.494Z,9.43
2022-12-23T20:57:29.017Z,9.43
2022-12-23T20:59:55.450Z,9.43
2022-12-23T21:02:21.934Z,9.45
2022-12-23T21:04:48.438Z,9.44
2022-12-23T21:07:14.950Z,9.44
2022-12-23T21:09:41.370Z,9.45
2022-12-23T21:12:07.810Z,9.46
2022-12-23T21:14:34.338Z,9.45
2022-12-23T21:17:00.798Z,9.43
2022-12-23T21:19:27.640Z,9.44
2022-12-23T21:21:54.167Z,9.44
2022-12-23T21:24:21.119Z,9.43
2022-12-23T21:26:55.382Z,9.45
2022-12-23T21:29:23.467Z,9.44
2022-12-23T21:31:50.027Z,9.43
2022-12-23T21:34:17.830Z,9.45
2022-12-23T21:36:44.376Z,9.45
2022-12-23T21:39:15.016Z,9.45
2022-12-23T21:41:41.813Z,9.43
2022-12-23T21:44:10.150Z,9.42
2022-12-23T21:46:36.681Z,9.41
2022-12-23T21:49:03.640Z,9.39
2022-12-23T21:51:39.079Z,9.39
2022-12-23T21:54:07.420Z,9.40
2022-12-23T21:56:34.355Z,9.39
2022-12-23T21:59:11.373Z,9.37
2022-12-23T22:01:38.076Z,9.37
2022-12-23T22:04:05.077Z,9.35
2022-12-23T22:06:35.855Z,9.34
2022-12-23T22:09:03.387Z,9.33
2022-12-23T22:11:31.919Z,9.28
2022-12-23T22:14:00.391Z,9.24
2022-12-23T22:16:28.540Z,9.19
2022-12-23T22:18:56.832Z,9.17
2022-12-23T22:21:25.466Z,9.13
2022-12-23T22:23:53.129Z,9.10
2022-12-23T22:26:26.291Z,9.06
2022-12-23T22:28:55.435Z,9.03
2022-12-23T22:31:36.842Z,9.02
2022-12-23T22:34:04.674Z,9.01
2022-12-23T22:36:31.293Z,9.02
2022-12-23T22:38:59.792Z,9.00
2022-12-23T22:41:28.043Z,9.01
2022-12-23T22:43:55.125Z,9.00
2022-12-23T22:46:21.918Z,9.00
2022-12-23T22:48:48.532Z,8.98
2022-12-23T22:51:18.030Z,8.96
2022-12-23T22:53:45.181Z,8.97
2022-12-23T22:56:13.719Z,8.95
2022-12-23T22:58:40.252Z,8.95
2022-12-23T23:01:07.428Z,8.95
2022-12-23T23:03:34.017Z,8.96
2022-12-23T23:06:07.109Z,8.96
2022-12-23T23:08:34.689Z,8.96
2022-12-23T23:11:05.021Z,8.97
2022-12-23T23:13:34.630Z,8.99
2022-12-23T23:16:02.415Z,8.99
2022-12-23T23:18:30.243Z,8.97
2022-12-23T23:20:56.988Z,8.97
2022-12-23T23:23:23.543Z,8.97
2022-12-23T23:25:50.158Z,8.98
2022-12-23T23:28:16.776Z,8.96
2022-12-23T23:30:43.512Z,8.97
2022-12-23T23:33:10.645Z,8.97
2022-12-23T23:35:37.564Z,8.98
2022-12-23T23:38:04.082Z,8.98
2022-12-23T23:40:30.604Z,8.97
2022-12-23T23:42:57.088Z,8.97
2022-12-23T23:45:23.591Z,8.97
2022-12-23T23:47:50.154Z,8.98
2022-12-23T23:50:16.778Z,8.96
2022-12-23T23:52:43.299Z,8.97
2022-12-23T23:55:10.382Z,8.99
2022-12-23T23:57:37.140Z,8.99
